Time;durP1;ratioP1;P1;durP2;ratioP2;P2;SDS_P1;SDS_P2;PMS_P1;PMS_P2;Temp;Humidity;BMP_temperature;BMP_pressure;BME280_temperature;BME280_humidity;BME280_pressure;Samples;Min_cycle;Max_cycle;Signal;HPM_P1;HPM_P2
2023/03/21 00:00:47;;;;;;;38.60;18.37;;;9.00;99.90;;;;;;4999773;28;20198;-87
2023/03/21 00:03:15;;;;;;;38.80;19.20;;;8.90;99.90;;;;;;4967065;28;20186;-86
2023/03/21 00:05:41;;;;;;;34.17;17.40;;;9.00;99.90;;;;;;5002657;28;20189;-86
2023/03/21 00:08:09;;;;;;;37.10;18.27;;;8.90;99.90;;;;;;5006088;28;20649;-87
2023/03/21 00:10:35;;;;;;;37.03;17.53;;;9.00;99.90;;;;;;4972534;28;20272;-87
2023/03/21 00:13:00;;;;;;;40.93;17.57;;;8.90;99.90;;;;;;4985798;28;20186;-87
2023/03/21 00:15:28;;;;;;;35.60;15.73;;;9.00;99.90;;;;;;4983381;28;20604;-87
2023/03/21 00:18:10;;;;;;;38.63;16.37;;;9.00;99.90;;;;;;4982203;28;20609;-85
2023/03/21 00:20:39;;;;;;;41.35;17.17;;;8.90;99.90;;;;;;5013462;28;21912;-86
2023/03/21 00:23:04;;;;;;;38.33;16.87;;;9.00;99.90;;;;;;4997958;28;20248;-86
2023/03/21 00:25:31;;;;;;;34.73;15.60;;;;;;;;;;4998701;28;20182;-85
2023/03/21 00:27:57;;;;;;;31.27;16.40;;;9.10;99.90;;;;;;4999093;28;20205;-87
2023/03/21 00:30:24;;;;;;;32.00;16.83;;;;;;;;;;4997426;28;20193;-88
2023/03/21 00:32:52;;;;;;;35.07;16.37;;;9.00;99.90;;;;;;4995946;28;20619;-87
2023/03/21 00:35:18;;;;;;;35.87;16.37;;;8.90;99.90;;;;;;4995824;28;20228;-87
2023/03/21 00:37:45;;;;;;;31.00;16.50;;;;;;;;;;4995940;28;20204;-88
2023/03/21 00:40:14;;;;;;;37.30;16.80;;;9.00;99.90;;;;;;4996798;28;20216;-87
2023/03/21 00:42:39;;;;;;;27.83;14.47;;;9.00;99.90;;;;;;4979650;28;20198;-87
2023/03/21 00:45:09;;;;;;;36.93;16.47;;;8.90;99.90;;;;;;4996659;28;20686;-87
2023/03/21 00:47:35;;;;;;;30.90;14.87;;;9.00;99.90;;;;;;4995846;28;20269;-87
2023/03/21 00:50:00;;;;;;;37.67;16.17;;;9.00;99.90;;;;;;4989791;28;20217;-85
2023/03/21 00:52:26;;;;;;;41.13;17.90;;;8.40;99.90;;;;;;4995451;28;20651;-87
2023/03/21 00:54:53;;;;;;;32.70;14.43;;;8.90;99.90;;;;;;4975066;28;20190;-87
2023/03/21 00:57:20;;;;;;;29.93;13.90;;;8.90;99.90;;;;;;4996082;28;20240;-87
2023/03/21 00:59:46;;;;;;;30.87;15.97;;;9.00;99.90;;;;;;4996658;28;20214;-87
2023/03/21 01:02:13;;;;;;;37.10;16.10;;;8.90;99.90;;;;;;4979678;28;20639;-88
2023/03/21 01:04:45;;;;;;;31.83;15.60;;;8.80;99.90;;;;;;4994955;28;20193;-86
2023/03/21 01:07:12;;;;;;;33.95;17.70;;;8.90;99.90;;;;;;4994802;28;20193;-87
2023/03/21 01:09:38;;;;;;;31.73;15.52;;;8.80;99.90;;;;;;4963042;28;20182;-86
2023/03/21 01:12:04;;;;;;;36.43;15.93;;;;;;;;;;4978434;28;20178;-87
2023/03/21 01:14:31;;;;;;;33.73;16.47;;;8.80;99.90;;;;;;4996298;28;20216;-86
2023/03/21 01:17:01;;;;;;;31.07;15.80;;;9.40;99.90;;;;;;4978481;28;20599;-86
2023/03/21 01:19:28;;;;;;;37.17;17.00;;;8.80;99.90;;;;;;4995234;28;20202;-87
2023/03/21 01:21:56;;;;;;;35.90;17.07;;;8.80;99.90;;;;;;4994205;28;20717;-87
2023/03/21 01:24:21;;;;;;;31.92;15.60;;;8.90;99.90;;;;;;4995786;28;20193;-85
2023/03/21 01:26:48;;;;;;;28.50;15.27;;;;;;;;;;4978372;28;20186;-85
2023/03/21 01:29:13;;;;;;;29.90;14.23;;;8.90;99.90;;;;;;4993802;28;20181;-86
2023/03/21 01:31:39;;;;;;;30.33;14.80;;;6.20;99.90;;;;;;4978189;28;20253;-87
2023/03/21 01:34:05;;;;;;;34.77;16.33;;;;;;;;;;4993596;28;20696;-87
2023/03/21 01:36:31;;;;;;;41.67;18.77;;;8.90;99.90;;;;;;4977947;28;20268;-87
2023/03/21 01:38:57;;;;;;;36.80;15.53;;;9.20;99.90;;;;;;4993573;28;20643;-87
2023/03/21 01:41:30;;;;;;;39.00;18.50;;;9.20;99.90;;;;;;5010979;28;20217;-87
2023/03/21 01:43:56;;;;;;;37.97;16.93;;;8.60;99.90;;;;;;4993796;28;20178;-87
2023/03/21 01:46:28;;;;;;;34.87;16.40;;;8.80;99.90;;;;;;4994843;28;20534;-87
2023/03/21 01:49:00;;;;;;;31.33;15.60;;;8.80;99.90;;;;;;4993321;28;20178;-87
2023/03/21 01:51:27;;;;;;;32.73;15.70;;;8.90;99.90;;;;;;4995010;28;20178;-87
2023/03/21 01:53:54;;;;;;;30.63;15.47;;;8.70;99.90;;;;;;4993863;28;20178;-86
2023/03/21 01:56:28;;;;;;;29.97;15.33;;;8.60;99.90;;;;;;4977962;28;20189;-86
2023/03/21 01:59:01;;;;;;;42.60;18.53;;;8.70;99.90;;;;;;4994548;28;20163;-87
2023/03/21 02:01:27;;;;;;;32.27;17.30;;;8.30;99.90;;;;;;4995725;28;20186;-86
2023/03/21 02:03:54;;;;;;;38.93;16.87;;;8.60;99.90;;;;;;4978114;28;20233;-86
2023/03/21 02:06:43;;;;;;;29.50;16.60;;;8.60;99.90;;;;;;4961827;28;20304;-87
2023/03/21 02:09:13;;;;;;;36.83;17.03;;;8.50;99.90;;;;;;4993416;28;20182;-86
2023/03/21 02:11:40;;;;;;;35.90;16.80;;;8.50;99.90;;;;;;4993201;28;20200;-87
2023/03/21 02:14:08;;;;;;;35.73;16.73;;;8.50;99.90;;;;;;4976610;28;20269;-87
2023/03/21 02:17:12;;;;;;;36.73;17.57;;;8.40;99.90;;;;;;4977546;28;20317;-87
2023/03/21 02:19:58;;;;;;;31.17;15.97;;;8.40;99.90;;;;;;4990924;28;20271;-86
2023/03/21 02:22:42;;;;;;;40.33;17.00;;;8.50;99.90;;;;;;4972934;28;20221;-86
2023/03/21 02:25:51;;;;;;;29.43;16.87;;;8.40;99.90;;;;;;4978524;28;20186;-87
2023/03/21 02:28:37;;;;;;;41.17;15.07;;;8.50;99.90;;;;;;4978586;28;20202;-86
2023/03/21 02:31:43;;;;;;;32.37;14.83;;;8.40;99.90;;;;;;4977705;28;20280;-87
2023/03/21 02:34:19;;;;;;;34.93;15.87;;;8.30;99.90;;;;;;4977275;28;20548;-87
2023/03/21 02:36:53;;;;;;;41.43;17.63;;;8.30;99.90;;;;;;4977222;28;20182;-87
2023/03/21 02:39:40;;;;;;;32.27;16.90;;;8.30;99.90;;;;;;4977207;28;20209;-85
2023/03/21 02:42:20;;;;;;;33.70;17.53;;;8.20;99.90;;;;;;4976688;28;20205;-86
2023/03/21 02:45:08;;;;;;;30.97;15.77;;;8.20;99.90;;;;;;4976999;28;20174;-86
2023/03/21 02:47:41;;;;;;;39.07;16.97;;;8.20;99.90;;;;;;4976411;28;20178;-87
2023/03/21 02:50:29;;;;;;;30.60;15.90;;;8.20;99.90;;;;;;4994031;28;20267;-86
2023/03/21 02:52:57;;;;;;;33.70;15.10;;;8.20;99.90;;;;;;4976880;28;20178;-86
2023/03/21 02:55:25;;;;;;;35.23;16.80;;;8.20;99.90;;;;;;4976591;28;20232;-87
2023/03/21 02:57:54;;;;;;;30.70;15.93;;;8.20;99.90;;;;;;4976521;28;20539;-87
2023/03/21 03:00:25;;;;;;;30.00;16.37;;;8.20;99.90;;;;;;4976548;28;20562;-87
2023/03/21 03:02:51;;;;;;;31.60;16.30;;;8.20;99.90;;;;;;4976692;28;20201;-86
2023/03/21 03:05:22;;;;;;;32.83;16.37;;;8.20;99.90;;;;;;4960711;28;20182;-86
2023/03/21 03:08:13;;;;;;;32.00;15.47;;;8.20;99.90;;;;;;4976515;28;20194;-87
2023/03/21 03:11:04;;;;;;;35.40;15.10;;;8.20;99.90;;;;;;4977356;28;20296;-87
2023/03/21 03:13:37;;;;;;;33.70;16.00;;;8.30;99.90;;;;;;4962080;28;20177;-87
2023/03/21 03:16:06;;;;;;;34.80;14.13;;;8.20;99.90;;;;;;4997511;28;20212;-87
2023/03/21 03:18:47;;;;;;;32.10;14.50;;;8.20;99.90;;;;;;4980841;28;20662;-87
2023/03/21 03:21:25;;;;;;;39.67;15.27;;;8.20;99.90;;;;;;4986356;28;20238;-87
2023/03/21 03:23:58;;;;;;;28.93;13.07;;;8.30;99.90;;;;;;4986504;28;20173;-87
2023/03/21 03:26:34;;;;;;;24.97;13.27;;;8.30;99.90;;;;;;4983883;28;20623;-88
2023/03/21 03:29:15;;;;;;;35.20;16.13;;;8.30;99.90;;;;;;4982816;28;20232;-87
2023/03/21 03:32:01;;;;;;;38.13;16.77;;;8.00;99.90;;;;;;4982146;28;20240;-86
2023/03/21 03:34:38;;;;;;;27.43;12.50;;;8.30;99.90;;;;;;4974885;28;20186;-86
2023/03/21 03:37:06;;;;;;;30.50;13.57;;;8.20;99.90;;;;;;4980461;28;20264;-86
2023/03/21 03:40:07;;;;;;;31.53;13.40;;;8.20;99.90;;;;;;4980191;28;20206;-86
2023/03/21 03:42:42;;;;;;;27.60;14.03;;;8.20;99.90;;;;;;4979305;28;20272;-86
2023/03/21 03:45:09;;;;;;;26.70;13.27;;;8.20;99.90;;;;;;4982003;28;20211;-86
2023/03/21 03:47:35;;;;;;;26.83;12.83;;;8.30;99.90;;;;;;4980469;28;20182;-87
2023/03/21 03:50:26;;;;;;;28.17;15.10;;;8.20;99.90;;;;;;4981002;28;20287;-87
2023/03/21 03:52:58;;;;;;;30.67;12.77;;;8.20;99.90;;;;;;4980723;28;20208;-86
2023/03/21 03:55:26;;;;;;;26.30;13.27;;;8.20;99.90;;;;;;4979668;28;20707;-87
2023/03/21 03:57:53;;;;;;;23.60;11.43;;;8.20;99.90;;;;;;5003781;28;20249;-86
2023/03/21 04:00:20;;;;;;;29.00;13.47;;;;;;;;;;4979796;28;20679;-86
2023/03/21 04:02:46;;;;;;;23.77;11.17;;;8.80;99.90;;;;;;4980743;28;20261;-86
2023/03/21 04:05:12;;;;;;;23.60;10.07;;;8.20;99.90;;;;;;4970623;28;20213;-91
2023/03/21 04:07:41;;;;;;;24.83;12.73;;;8.20;99.90;;;;;;4983356;28;20182;-88
2023/03/21 04:10:07;;;;;;;25.77;12.53;;;8.20;99.90;;;;;;4975057;28;20190;-87
2023/03/21 04:12:33;;;;;;;21.10;10.93;;;;;;;;;;4998874;28;20192;-87
2023/03/21 04:14:59;;;;;;;20.67;10.73;;;;;;;;;;4983336;28;20254;-87
2023/03/21 04:17:25;;;;;;;24.87;11.87;;;;;;;;;;5000504;28;20232;-87
2023/03/21 04:19:51;;;;;;;29.70;11.50;;;;;;;;;;4980337;28;20701;-86
2023/03/21 04:22:21;;;;;;;26.33;11.63;;;;;;;;;;4975998;28;20594;-88
2023/03/21 04:24:46;;;;;;;28.00;13.17;;;8.10;99.90;;;;;;4996626;28;20181;-87
2023/03/21 04:27:13;;;;;;;27.30;11.43;;;;;;;;;;4995712;28;20186;-89
2023/03/21 04:29:46;;;;;;;21.73;10.50;;;;;;;;;;4996286;28;20182;-89
2023/03/21 04:32:18;;;;;;;27.13;11.13;;;;;;;;;;4995215;28;20177;-90
2023/03/21 04:34:50;;;;;;;25.50;12.30;;;8.00;99.90;;;;;;4995348;28;20166;-89
2023/03/21 04:37:17;;;;;;;23.47;11.70;;;8.00;99.90;;;;;;4979518;28;20269;-90
2023/03/21 04:39:45;;;;;;;25.67;12.33;;;;;;;;;;4999112;28;20206;-88
2023/03/21 04:42:13;;;;;;;16.63;7.30;;;8.00;99.90;;;;;;5002130;28;20658;-88
2023/03/21 04:44:39;;;;;;;21.50;10.40;;;8.00;99.90;;;;;;4997784;28;20178;-87
2023/03/21 04:47:05;;;;;;;28.47;10.73;;;;;;;;;;5012152;28;20186;-89
2023/03/21 04:49:32;;;;;;;23.80;9.10;;;;;;;;;;5005997;28;20190;-87
2023/03/21 04:51:58;;;;;;;22.37;10.50;;;;;;;;;;4996117;28;20206;-89
2023/03/21 04:54:24;;;;;;;20.77;10.07;;;;;;;;;;4994067;28;20178;-88
2023/03/21 04:56:50;;;;;;;22.40;8.80;;;;;;;;;;4993999;28;20185;-88
2023/03/21 04:59:21;;;;;;;25.17;11.90;;;7.90;99.90;;;;;;4993753;28;20210;-87
2023/03/21 05:01:48;;;;;;;22.17;10.80;;;;;;;;;;4994687;28;20174;-87
2023/03/21 05:04:15;;;;;;;20.10;8.20;;;7.90;99.90;;;;;;4977723;28;20186;-88
2023/03/21 05:06:42;;;;;;;28.73;9.90;;;7.90;99.90;;;;;;4994012;28;20185;-88
2023/03/21 05:09:08;;;;;;;24.53;11.33;;;7.90;99.90;;;;;;4993631;28;20236;-88
2023/03/21 05:11:36;;;;;;;26.83;11.87;;;7.90;99.90;;;;;;4961308;28;20182;-89
2023/03/21 05:14:09;;;;;;;27.17;11.73;;;7.90;99.90;;;;;;4993882;28;20174;-90
2023/03/21 05:16:37;;;;;;;18.17;8.67;;;7.80;99.90;;;;;;4995230;28;20611;-90
2023/03/21 05:19:03;;;;;;;24.83;10.73;;;;;;;;;;4993516;28;20273;-89
2023/03/21 05:21:33;;;;;;;20.70;9.93;;;7.80;99.90;;;;;;4993096;28;20240;-89
2023/03/21 05:24:02;;;;;;;28.17;12.47;;;7.80;99.90;;;;;;4993604;28;20185;-89
2023/03/21 05:26:28;;;;;;;17.90;9.30;;;;;;;;;;4993450;28;20178;-87
2023/03/21 05:28:54;;;;;;;23.47;10.43;;;;;;;;;;4993533;28;20269;-88
2023/03/21 05:31:21;;;;;;;25.33;10.23;;;;;;;;;;4992983;28;20186;-91
2023/03/21 05:33:47;;;;;;;19.60;9.53;;;;;;;;;;4977617;28;20205;-90
2023/03/21 05:36:14;;;;;;;16.87;8.90;;;8.00;99.90;;;;;;4994027;28;20217;-88
2023/03/21 05:38:45;;;;;;;22.13;10.20;;;8.30;99.90;;;;;;4994307;28;20190;-88
2023/03/21 05:41:12;;;;;;;17.43;10.27;;;7.90;99.90;;;;;;4962496;28;20615;-89
2023/03/21 05:43:38;;;;;;;15.97;8.60;;;9.70;99.90;;;;;;4992331;28;20204;-89
2023/03/21 05:46:04;;;;;;;21.73;9.07;;;;;;;;;;4992029;28;20264;-89
2023/03/21 05:48:30;;;;;;;21.80;9.97;;;;;;;;;;4992598;28;20252;-89
2023/03/21 05:50:57;;;;;;;22.57;10.13;;;;;;;;;;4992939;28;20228;-87
2023/03/21 05:53:22;;;;;;;18.63;8.43;;;7.90;99.90;;;;;;4992460;28;20645;-87
2023/03/21 05:55:49;;;;;;;22.23;8.93;;;;;;;;;;4993008;28;20206;-86
2023/03/21 05:58:14;;;;;;;21.17;9.40;;;8.00;99.90;;;;;;4992843;28;20178;-87
2023/03/21 06:00:40;;;;;;;18.13;8.10;;;;;;;;;;4976274;28;20213;-87
2023/03/21 06:03:06;;;;;;;19.40;8.63;;;;;;;;;;4992496;28;20197;-85
2023/03/21 06:05:32;;;;;;;18.90;7.77;;;;;;;;;;4992454;28;20727;-86
2023/03/21 06:07:58;;;;;;;26.93;9.73;;;8.00;99.90;;;;;;4992468;28;20534;-86
2023/03/21 06:10:24;;;;;;;17.53;9.20;;;8.00;99.90;;;;;;4992553;28;20190;-86
2023/03/21 06:12:52;;;;;;;18.07;8.03;;;8.10;99.90;;;;;;4993393;28;20193;-85
2023/03/21 06:15:18;;;;;;;17.87;8.53;;;;;;;;;;4960876;28;20200;-85
2023/03/21 06:17:44;;;;;;;13.83;6.17;;;;;;;;;;4993367;28;20702;-85
2023/03/21 06:20:12;;;;;;;15.07;7.60;;;8.10;99.90;;;;;;4977116;28;20220;-86
2023/03/21 06:22:37;;;;;;;15.47;7.90;;;8.10;99.90;;;;;;4976785;28;20242;-86
2023/03/21 06:25:06;;;;;;;13.83;8.07;;;8.10;99.90;;;;;;4993267;28;20189;-85
2023/03/21 06:27:34;;;;;;;16.57;7.73;;;8.10;99.90;;;;;;4992779;28;20210;-86
2023/03/21 06:30:00;;;;;;;13.97;6.50;;;;;;;;;;4992901;28;20186;-85
2023/03/21 06:32:26;;;;;;;14.97;6.83;;;8.10;99.90;;;;;;4992783;28;20634;-85
2023/03/21 06:34:53;;;;;;;17.47;7.90;;;8.10;99.90;;;;;;4993911;28;20186;-85
2023/03/21 06:37:19;;;;;;;11.00;5.43;;;8.10;99.90;;;;;;4992279;28;20221;-87
2023/03/21 06:39:45;;;;;;;20.00;7.33;;;8.20;99.90;;;;;;4975846;28;20214;-85
2023/03/21 06:42:12;;;;;;;11.40;5.87;;;8.20;99.90;;;;;;4975861;28;20208;-86
2023/03/21 06:44:38;;;;;;;19.17;7.73;;;8.20;99.90;;;;;;4976564;28;20186;-86
2023/03/21 06:47:05;;;;;;;12.87;6.53;;;8.20;99.90;;;;;;4996239;28;20189;-85
2023/03/21 06:49:31;;;;;;;11.90;6.60;;;8.20;99.90;;;;;;4979647;28;20178;-87
2023/03/21 06:51:57;;;;;;;15.90;6.47;;;8.30;99.90;;;;;;4995854;28;20269;-86
2023/03/21 06:54:23;;;;;;;16.37;7.43;;;8.30;99.90;;;;;;4979593;28;20646;-86
2023/03/21 06:56:48;;;;;;;17.10;5.90;;;8.30;99.90;;;;;;4979327;28;20555;-85
2023/03/21 06:59:14;;;;;;;22.50;7.07;;;8.40;99.90;;;;;;4995703;28;20220;-86
2023/03/21 07:01:41;;;;;;;13.07;7.30;;;8.40;99.90;;;;;;4996732;28;20188;-86
2023/03/21 07:04:07;;;;;;;13.60;7.20;;;8.40;99.90;;;;;;4979544;28;20707;-85
2023/03/21 07:06:33;;;;;;;17.73;6.87;;;8.40;99.90;;;;;;4980852;28;20548;-87
2023/03/21 07:08:59;;;;;;;18.23;8.63;;;8.60;99.90;;;;;;4995443;28;20178;-86
2023/03/21 07:11:25;;;;;;;18.50;8.73;;;;;;;;;;4979268;28;20221;-86
2023/03/21 07:13:51;;;;;;;19.13;8.20;;;8.50;99.90;;;;;;4979049;28;20198;-86
2023/03/21 07:16:20;;;;;;;24.40;8.30;;;8.50;99.90;;;;;;4995365;28;20228;-85
2023/03/21 07:18:46;;;;;;;15.60;7.57;;;8.50;99.90;;;;;;4995230;28;20205;-85
2023/03/21 07:21:12;;;;;;;19.33;8.27;;;8.60;99.90;;;;;;4978785;28;20276;-85
2023/03/21 07:23:38;;;;;;;16.57;7.63;;;8.70;99.90;;;;;;4994906;28;20182;-87
2023/03/21 07:26:05;;;;;;;23.90;9.13;;;8.70;99.90;;;;;;4994822;28;20186;-86
2023/03/21 07:28:32;;;;;;;21.23;8.13;;;8.70;99.90;;;;;;4995021;28;20186;-86
2023/03/21 07:31:01;;;;;;;14.33;6.80;;;8.80;99.90;;;;;;4996131;28;20197;-86
2023/03/21 07:33:27;;;;;;;19.70;8.07;;;8.70;99.90;;;;;;4996306;28;20180;-86
2023/03/21 07:35:55;;;;;;;22.63;7.80;;;8.70;99.90;;;;;;4994571;28;20200;-85
2023/03/21 07:38:23;;;;;;;17.30;7.03;;;;;;;;;;4997624;28;20183;-85
2023/03/21 07:40:49;;;;;;;20.20;8.67;;;8.80;99.90;;;;;;4996666;28;20210;-85
2023/03/21 07:43:34;;;;;;;13.80;6.70;;;8.80;99.90;;;;;;4980045;28;20273;-85
2023/03/21 07:46:00;;;;;;;16.33;8.10;;;8.80;99.90;;;;;;4985870;28;20645;-86
2023/03/21 07:48:26;;;;;;;18.87;7.93;;;8.80;99.90;;;;;;4997337;28;20181;-85
2023/03/21 07:50:52;;;;;;;25.30;8.77;;;8.70;99.90;;;;;;4978863;28;20224;-86
2023/03/21 07:53:18;;;;;;;20.50;9.20;;;8.80;99.90;;;;;;4978961;28;20189;-85
2023/03/21 07:55:44;;;;;;;18.40;8.03;;;8.80;99.90;;;;;;4995099;28;20181;-85
2023/03/21 07:58:10;;;;;;;21.30;8.97;;;8.80;99.90;;;;;;4978744;28;20600;-85
2023/03/21 08:00:35;;;;;;;21.70;8.40;;;8.80;99.90;;;;;;4979014;28;20210;-85
2023/03/21 08:03:01;;;;;;;20.03;8.43;;;8.70;99.90;;;;;;4962629;28;20557;-85
2023/03/21 08:05:32;;;;;;;14.27;7.33;;;8.90;99.90;;;;;;4996344;28;20224;-85
2023/03/21 08:07:59;;;;;;;17.40;7.13;;;8.90;99.90;;;;;;4996809;28;20174;-84
2023/03/21 08:10:25;;;;;;;16.93;8.03;;;8.90;99.90;;;;;;4996664;28;20631;-85
2023/03/21 08:12:51;;;;;;;16.13;8.53;;;9.10;99.90;;;;;;4979003;28;20269;-85
2023/03/21 08:15:18;;;;;;;15.40;7.27;;;9.00;99.90;;;;;;5002191;28;20205;-84
2023/03/21 08:17:44;;;;;;;16.90;6.57;;;9.00;99.90;;;;;;4987492;28;20192;-86
2023/03/21 08:20:16;;;;;;;14.23;7.27;;;9.10;99.90;;;;;;4982692;28;20649;-85
2023/03/21 08:22:42;;;;;;;19.03;8.13;;;9.10;99.90;;;;;;4995917;28;20234;-84
2023/03/21 08:25:12;;;;;;;22.60;8.87;;;9.00;99.90;;;;;;4999479;28;20182;-84
2023/03/21 08:27:42;;;;;;;20.27;8.77;;;9.10;99.90;;;;;;5001138;28;20646;-84
2023/03/21 08:30:11;;;;;;;17.43;8.30;;;9.20;99.90;;;;;;4995752;28;20182;-84
2023/03/21 08:32:37;;;;;;;13.88;6.70;;;9.30;99.90;;;;;;4995834;28;20231;-85
2023/03/21 08:35:08;;;;;;;10.73;5.50;;;9.30;99.90;;;;;;4978978;28;20182;-85
2023/03/21 08:37:37;;;;;;;13.73;6.77;;;9.30;99.90;;;;;;4996857;28;20272;-86
2023/03/21 08:40:12;;;;;;;15.30;6.65;;;9.50;99.90;;;;;;4995411;28;20225;-86
2023/03/21 08:42:41;;;;;;;13.45;6.90;;;9.50;99.90;;;;;;4995970;28;20165;-85
2023/03/21 08:45:08;;;;;;;11.68;6.00;;;9.40;99.90;;;;;;4994645;28;20389;-85
2023/03/21 08:47:34;;;;;;;19.23;8.05;;;9.40;99.90;;;;;;4994826;28;20662;-86
2023/03/21 08:50:00;;;;;;;15.40;7.03;;;9.30;99.90;;;;;;4962150;28;20193;-84
2023/03/21 08:52:26;;;;;;;24.98;10.80;;;9.30;99.90;;;;;;4978270;28;20261;-85
2023/03/21 08:54:52;;;;;;;21.13;8.63;;;9.20;99.90;;;;;;4995559;28;20181;-84
2023/03/21 08:57:19;;;;;;;18.90;9.00;;;9.20;99.90;;;;;;4978077;28;20221;-84
2023/03/21 08:59:46;;;;;;;14.93;6.45;;;9.20;99.90;;;;;;4995742;28;20264;-85
2023/03/21 09:02:16;;;;;;;18.37;8.13;;;9.20;99.90;;;;;;4978460;28;20216;-84
2023/03/21 09:04:43;;;;;;;23.25;9.43;;;9.30;99.90;;;;;;4994843;28;20646;-84
2023/03/21 09:07:11;;;;;;;15.38;7.00;;;9.30;99.90;;;;;;4994079;28;20229;-85
2023/03/21 09:09:37;;;;;;;15.30;7.65;;;9.30;99.90;;;;;;4993182;28;20649;-84
2023/03/21 09:12:03;;;;;;;12.55;6.15;;;11.40;99.90;;;;;;4978177;28;20197;-85
2023/03/21 09:14:29;;;;;;;15.18;7.07;;;9.30;99.90;;;;;;4995477;28;20635;-85
2023/03/21 09:16:54;;;;;;;14.95;7.45;;;9.40;99.90;;;;;;4977577;28;20593;-85
2023/03/21 09:19:23;;;;;;;17.80;7.55;;;9.40;99.90;;;;;;4978044;28;20206;-84
2023/03/21 09:21:49;;;;;;;13.40;6.13;;;9.40;99.90;;;;;;4977555;28;20690;-85
2023/03/21 09:24:17;;;;;;;16.10;6.40;;;9.40;99.90;;;;;;4993702;28;20188;-84
2023/03/21 09:26:43;;;;;;;14.57;6.75;;;9.40;99.90;;;;;;4994032;28;20202;-85
2023/03/21 09:29:09;;;;;;;13.17;6.40;;;9.90;99.90;;;;;;4977531;28;20193;-84
2023/03/21 09:31:35;;;;;;;12.43;5.18;;;9.40;99.90;;;;;;4994678;28;20182;-82
2023/03/21 09:34:00;;;;;;;15.38;6.07;;;9.50;99.90;;;;;;4993700;28;20193;-83
2023/03/21 09:36:27;;;;;;;17.10;7.30;;;;;;;;;;4977533;28;20186;-86
2023/03/21 09:38:53;;;;;;;19.43;7.60;;;9.40;99.90;;;;;;4993691;28;20631;-83
2023/03/21 09:41:36;;;;;;;12.85;6.03;;;9.40;99.90;;;;;;4994809;28;20228;-84
2023/03/21 09:44:24;;;;;;;17.63;6.73;;;9.40;99.90;;;;;;4993920;28;20205;-84
2023/03/21 09:47:01;;;;;;;15.65;6.72;;;9.50;99.90;;;;;;4994884;28;20169;-83
2023/03/21 09:49:34;;;;;;;10.83;5.47;;;9.50;99.90;;;;;;4994848;28;20181;-84
2023/03/21 09:52:11;;;;;;;16.70;6.63;;;9.50;99.90;;;;;;4994943;28;20162;-83
2023/03/21 09:54:41;;;;;;;14.53;7.23;;;9.50;99.90;;;;;;4993867;28;20634;-84
2023/03/21 09:57:31;;;;;;;17.03;7.70;;;9.50;99.90;;;;;;4995165;28;20194;-84
2023/03/21 10:00:06;;;;;;;15.97;6.43;;;9.50;99.90;;;;;;4995070;28;20670;-84
2023/03/21 10:02:58;;;;;;;14.30;7.67;;;9.40;99.90;;;;;;4997823;28;20181;-84
2023/03/21 10:05:30;;;;;;;13.07;5.43;;;9.50;99.90;;;;;;4996312;28;20254;-84
2023/03/21 10:08:08;;;;;;;13.85;6.55;;;9.30;99.90;;;;;;4993595;28;20184;-85
2023/03/21 10:10:44;;;;;;;18.67;7.63;;;9.30;99.90;;;;;;4995856;28;20200;-85
2023/03/21 10:13:15;;;;;;;18.77;6.88;;;9.30;99.90;;;;;;4993911;28;20181;-85
2023/03/21 10:15:41;;;;;;;15.70;6.23;;;9.20;99.90;;;;;;4995327;28;20182;-84
2023/03/21 10:18:15;;;;;;;12.73;6.90;;;9.20;99.90;;;;;;5000356;28;20196;-86
2023/03/21 10:20:41;;;;;;;20.33;8.23;;;9.20;99.90;;;;;;4993176;28;20226;-85
2023/03/21 10:23:13;;;;;;;16.40;6.80;;;9.30;99.90;;;;;;4977034;28;20186;-85
2023/03/21 10:25:42;;;;;;;18.60;8.52;;;9.40;99.90;;;;;;4993410;28;20722;-84
2023/03/21 10:28:14;;;;;;;19.33;7.77;;;9.40;99.90;;;;;;4992889;28;20536;-85
2023/03/21 10:30:54;;;;;;;16.43;7.43;;;9.30;99.90;;;;;;4992655;28;20185;-85
2023/03/21 10:33:25;;;;;;;16.95;7.97;;;9.30;99.90;;;;;;4992880;28;20709;-84
2023/03/21 10:35:57;;;;;;;15.23;7.50;;;9.20;99.90;;;;;;4992907;28;20189;-81
2023/03/21 10:38:25;;;;;;;16.00;7.50;;;9.20;99.90;;;;;;4994949;28;20185;-84
2023/03/21 10:40:52;;;;;;;13.55;7.15;;;9.20;99.90;;;;;;4985699;28;20738;-84
2023/03/21 10:43:29;;;;;;;14.25;6.55;;;9.20;99.90;;;;;;5001118;28;20205;-86
2023/03/21 10:45:56;;;;;;;13.97;6.77;;;9.20;99.90;;;;;;4994974;28;20166;-84
2023/03/21 10:48:23;;;;;;;15.53;6.80;;;9.10;99.90;;;;;;4992834;28;20178;-85
2023/03/21 10:50:53;;;;;;;13.63;6.43;;;9.10;99.90;;;;;;4976685;28;20186;-85
2023/03/21 10:53:28;;;;;;;15.23;7.37;;;9.00;99.90;;;;;;4993919;28;20189;-85
2023/03/21 10:55:58;;;;;;;17.07;6.63;;;8.90;99.90;;;;;;4992874;28;20231;-84
2023/03/21 10:58:32;;;;;;;15.98;7.13;;;8.90;99.90;;;;;;4992482;28;20690;-85
2023/03/21 11:01:06;;;;;;;14.70;7.53;;;9.00;99.90;;;;;;4992658;28;20280;-84
2023/03/21 11:03:36;;;;;;;18.37;8.00;;;8.90;99.90;;;;;;4993696;28;20176;-84
2023/03/21 11:06:13;;;;;;;18.20;7.33;;;8.80;99.90;;;;;;4992646;28;20177;-84
2023/03/21 11:08:44;;;;;;;13.07;7.03;;;8.90;99.90;;;;;;4993932;28;20185;-84
2023/03/21 11:11:20;;;;;;;20.10;8.90;;;8.90;99.90;;;;;;4994083;28;20261;-85
2023/03/21 11:13:55;;;;;;;18.03;7.57;;;8.90;99.90;;;;;;4993628;28;20162;-85
2023/03/21 11:16:41;;;;;;;20.13;8.63;;;9.00;99.90;;;;;;4977599;28;20208;-84
2023/03/21 11:19:15;;;;;;;17.87;7.77;;;9.00;99.90;;;;;;4993978;28;20174;-84
2023/03/21 11:21:41;;;;;;;14.50;7.10;;;9.10;99.90;;;;;;4992198;28;20316;-85
2023/03/21 11:24:14;;;;;;;13.23;5.97;;;9.30;99.90;;;;;;4960368;28;20190;-86
2023/03/21 11:26:43;;;;;;;13.43;6.33;;;9.40;99.90;;;;;;4992646;28;20178;-85
2023/03/21 11:29:34;;;;;;;17.65;8.02;;;9.60;99.90;;;;;;4992411;28;20183;-83
2023/03/21 11:32:11;;;;;;;13.80;6.03;;;9.60;99.90;;;;;;4993399;28;20232;-83
2023/03/21 11:34:55;;;;;;;12.37;6.20;;;9.70;99.90;;;;;;4995783;28;20185;-85
2023/03/21 11:37:27;;;;;;;10.77;6.32;;;9.80;99.90;;;;;;4996140;28;20192;-85
2023/03/21 11:40:26;;;;;;;15.60;7.10;;;9.90;99.90;;;;;;4995489;28;20213;-85
2023/03/21 11:43:22;;;;;;;8.50;5.15;;;9.80;99.90;;;;;;4996591;28;20209;-85
2023/03/21 11:46:07;;;;;;;11.98;6.00;;;8.10;99.90;;;;;;4995454;28;20277;-85
2023/03/21 11:48:40;;;;;;;11.75;5.07;;;10.00;99.90;;;;;;4995308;28;20594;-85
2023/03/21 11:51:20;;;;;;;10.13;5.10;;;10.00;99.90;;;;;;4995353;28;20645;-86
2023/03/21 11:54:12;;;;;;;10.55;4.45;;;10.10;99.90;;;;;;4995381;28;20181;-84
2023/03/21 11:56:44;;;;;;;8.63;5.22;;;10.00;99.90;;;;;;4995391;28;20193;-85
2023/03/21 11:59:27;;;;;;;8.55;4.55;;;10.10;99.90;;;;;;4996733;28;20686;-85
2023/03/21 12:02:11;;;;;;;10.45;4.45;;;10.20;99.90;;;;;;4995675;28;20190;-84
2023/03/21 12:04:45;;;;;;;7.50;4.05;;;10.20;99.90;;;;;;4995542;28;20189;-85
2023/03/21 12:07:17;;;;;;;9.48;4.70;;;10.20;99.90;;;;;;4995247;28;20192;-85
2023/03/21 12:10:07;;;;;;;8.60;3.92;;;10.30;99.90;;;;;;4995152;28;20194;-85
2023/03/21 12:12:40;;;;;;;6.47;4.03;;;10.30;99.90;;;;;;4995012;28;20185;-85
2023/03/21 12:15:20;;;;;;;9.60;4.40;;;10.30;99.90;;;;;;4995009;28;20185;-85
2023/03/21 12:18:14;;;;;;;10.32;5.15;;;10.40;99.90;;;;;;4994692;28;20224;-85
2023/03/21 12:20:48;;;;;;;8.55;3.72;;;10.40;99.90;;;;;;4994676;28;20210;-86
2023/03/21 12:23:38;;;;;;;11.75;5.07;;;10.50;99.90;;;;;;4994930;28;20182;-85
2023/03/21 12:26:18;;;;;;;13.88;4.05;;;10.50;99.90;;;;;;4994751;28;20184;-85
2023/03/21 12:28:43;;;;;;;7.95;3.28;;;10.50;99.90;;;;;;4996188;28;20174;-85
2023/03/21 12:32:16;;;;;;;9.10;3.90;;;10.40;99.90;;;;;;4994430;28;20196;-85
2023/03/21 12:34:45;;;;;;;9.80;4.68;;;10.40;99.90;;;;;;4867356;29;20213;-85
2023/03/21 12:37:25;;;;;;;10.15;4.20;;;10.30;99.90;;;;;;4900979;29;20248;-85
2023/03/21 12:40:00;;;;;;;9.80;4.43;;;10.30;99.90;;;;;;4973636;28;20697;-85
2023/03/21 12:42:48;;;;;;;8.07;4.05;;;10.20;99.90;;;;;;4994260;28;20182;-85
2023/03/21 12:45:21;;;;;;;9.85;4.43;;;10.20;99.90;;;;;;4994535;28;20306;-84
2023/03/21 12:47:52;;;;;;;9.82;4.45;;;10.30;99.90;;;;;;4994378;28;20217;-86
2023/03/21 12:50:35;;;;;;;6.05;3.95;;;10.30;99.90;;;;;;4994532;28;20225;-85
2023/03/21 12:53:25;;;;;;;7.40;4.05;;;10.20;99.90;;;;;;4995721;28;20177;-86
2023/03/21 12:55:51;;;;;;;9.75;5.13;;;10.20;99.90;;;;;;4995934;28;20162;-85
2023/03/21 12:58:23;;;;;;;9.75;5.20;;;10.20;99.90;;;;;;4978283;28;20200;-86
2023/03/21 13:01:02;;;;;;;9.57;4.95;;;10.30;99.90;;;;;;4994394;28;20615;-86
2023/03/21 13:03:44;;;;;;;7.80;3.85;;;10.40;99.90;;;;;;4993620;28;20236;-86
2023/03/21 13:06:14;;;;;;;7.45;3.30;;;10.50;99.90;;;;;;4994485;28;20188;-86
2023/03/21 13:09:12;;;;;;;5.78;4.03;;;10.60;99.90;;;;;;4993927;28;20178;-83
2023/03/21 13:11:40;;;;;;;5.82;3.75;;;10.60;99.90;;;;;;4989892;28;20698;-85
2023/03/21 13:14:23;;;;;;;12.90;4.60;;;10.80;99.90;;;;;;4980269;28;20643;-85